createdAt,value
2022-09-15T00:03:18.276Z,100.00
2022-09-15T00:08:21.035Z,100.00
2022-09-15T00:13:23.830Z,100.00
2022-09-15T00:18:27.587Z,100.00
2022-09-15T00:23:30.260Z,100.00
2022-09-15T00:28:33.095Z,100.00
2022-09-15T00:33:36.211Z,100.00
2022-09-15T00:38:39.003Z,100.00
2022-09-15T00:43:41.821Z,100.00
2022-09-15T00:48:44.633Z,100.00
2022-09-15T00:53:47.326Z,100.00
2022-09-15T00:58:50.045Z,100.00
2022-09-15T01:03:53.199Z,100.00
2022-09-15T01:08:56.018Z,100.00
2022-09-15T01:13:58.729Z,100.00
2022-09-15T01:19:01.425Z,100.00
2022-09-15T01:24:05.100Z,100.00
2022-09-15T01:29:07.802Z,100.00
2022-09-15T01:34:11.062Z,100.00
2022-09-15T01:39:13.866Z,100.00
2022-09-15T01:44:16.741Z,100.00
2022-09-15T01:49:19.544Z,100.00
2022-09-15T01:54:22.355Z,100.00
2022-09-15T01:59:25.457Z,100.00
2022-09-15T02:04:29.943Z,100.00
2022-09-15T02:09:32.995Z,100.00
2022-09-15T02:14:36.945Z,100.00
2022-09-15T02:19:41.274Z,100.00
2022-09-15T02:24:44.356Z,100.00
2022-09-15T02:29:47.488Z,100.00
2022-09-15T02:34:51.710Z,100.00
2022-09-15T02:39:55.274Z,100.00
2022-09-15T02:44:59.083Z,100.00
2022-09-15T02:50:02.923Z,100.00
2022-09-15T02:55:06.514Z,100.00
2022-09-15T03:00:16.331Z,100.00
2022-09-15T03:05:20.133Z,100.00
2022-09-15T03:10:23.875Z,100.00
2022-09-15T03:15:33.583Z,100.00
2022-09-15T03:20:36.683Z,100.00
2022-09-15T03:25:39.971Z,100.00
2022-09-15T03:30:43.565Z,100.00
2022-09-15T03:35:46.930Z,100.00
2022-09-15T03:40:50.029Z,100.00
2022-09-15T03:45:56.277Z,100.00
2022-09-15T03:51:01.886Z,100.00
2022-09-15T03:56:05.298Z,100.00
2022-09-15T04:01:08.980Z,100.00
2022-09-15T04:06:12.218Z,100.00
2022-09-15T04:11:15.231Z,100.00
2022-09-15T04:16:18.521Z,100.00
2022-09-15T04:21:21.856Z,100.00
2022-09-15T04:26:24.926Z,100.00
2022-09-15T04:31:28.326Z,100.00
2022-09-15T04:36:31.705Z,100.00
2022-09-15T04:41:34.878Z,100.00
2022-09-15T04:46:37.894Z,100.00
2022-09-15T04:51:40.816Z,100.00
2022-09-15T04:56:43.910Z,100.00
2022-09-15T05:01:51.730Z,100.00
2022-09-15T05:06:55.134Z,100.00
2022-09-15T05:11:58.249Z,100.00
2022-09-15T05:17:01.303Z,100.00
2022-09-15T05:22:05.252Z,100.00
2022-09-15T05:27:08.592Z,100.00
2022-09-15T05:32:12.117Z,100.00
2022-09-15T05:37:15.216Z,100.00
2022-09-15T05:42:19.420Z,100.00
2022-09-15T05:47:23.780Z,100.00
2022-09-15T05:52:27.058Z,100.00
2022-09-15T05:57:30.182Z,100.00
2022-09-15T06:02:33.800Z,100.00
2022-09-15T06:07:37.044Z,100.00
2022-09-15T06:12:40.526Z,100.00
2022-09-15T06:17:43.767Z,100.00
2022-09-15T06:22:46.997Z,100.00
2022-09-15T06:27:49.876Z,100.00
2022-09-15T06:32:52.771Z,100.00
2022-09-15T06:37:55.714Z,100.00
2022-09-15T06:42:58.456Z,100.00
2022-09-15T06:48:23.360Z,100.00
2022-09-15T06:53:27.104Z,100.00
2022-09-15T06:58:30.060Z,100.00
2022-09-15T07:03:33.065Z,100.00
2022-09-15T07:08:36.037Z,100.00
2022-09-15T07:13:39.222Z,100.00
2022-09-15T07:18:43.523Z,100.00
2022-09-15T07:23:46.647Z,100.00
2022-09-15T07:28:49.902Z,100.00
2022-09-15T07:33:53.384Z,100.00
2022-09-15T07:38:56.206Z,100.00
2022-09-15T07:43:59.080Z,100.00
2022-09-15T07:49:04.131Z,100.00
2022-09-15T07:54:07.406Z,100.00
2022-09-15T07:59:10.253Z,100.00
2022-09-15T08:04:13.430Z,99.67
2022-09-15T08:09:17.890Z,100.00
2022-09-15T08:14:21.845Z,100.00
2022-09-15T08:19:24.689Z,100.00
2022-09-15T08:24:35.581Z,100.00
2022-09-15T08:29:38.294Z,100.00
2022-09-15T08:34:41.329Z,100.00
2022-09-15T08:39:44.657Z,100.00
2022-09-15T08:44:47.398Z,98.86
2022-09-15T08:49:52.520Z,96.49
2022-09-15T08:54:55.553Z,92.41
2022-09-15T09:00:00.997Z,90.41
2022-09-15T09:05:03.841Z,90.82
2022-09-15T09:10:07.006Z,91.86
2022-09-15T09:15:09.698Z,90.59
2022-09-15T09:20:12.522Z,92.60
2022-09-15T09:25:26.651Z,94.63
2022-09-15T09:30:30.885Z,95.01
2022-09-15T09:35:33.646Z,96.45
2022-09-15T09:40:37.295Z,96.18
2022-09-15T09:45:40.094Z,95.93
2022-09-15T09:50:43.616Z,96.61
2022-09-15T09:55:46.897Z,94.09
2022-09-15T10:00:49.710Z,88.27
2022-09-15T10:05:52.489Z,86.50
2022-09-15T10:10:56.840Z,84.64
2022-09-15T10:15:59.589Z,80.01
2022-09-15T10:21:02.856Z,76.98
2022-09-15T10:26:05.577Z,77.74
2022-09-15T10:31:08.414Z,75.87
2022-09-15T10:36:11.145Z,72.39
2022-09-15T10:41:13.963Z,70.58
2022-09-15T10:46:17.531Z,72.23
2022-09-15T10:51:22.975Z,74.61
2022-09-15T10:56:25.833Z,71.52
2022-09-15T11:01:28.695Z,73.34
2022-09-15T11:06:31.524Z,69.63
2022-09-15T11:11:34.231Z,71.87
2022-09-15T11:16:38.166Z,70.78
2022-09-15T11:21:40.893Z,70.94
2022-09-15T11:26:44.124Z,68.84
2022-09-15T11:31:46.916Z,70.65
2022-09-15T11:36:49.648Z,72.55
2022-09-15T11:41:56.531Z,70.82
2022-09-15T11:46:59.606Z,70.26
2022-09-15T11:52:02.346Z,69.49
2022-09-15T11:57:15.619Z,69.75
2022-09-15T12:02:18.501Z,69.32
2022-09-15T12:07:23.250Z,70.19
2022-09-15T12:12:30.631Z,68.65
2022-09-15T12:17:34.141Z,68.05
2022-09-15T12:22:37.455Z,68.14
2022-09-15T12:27:40.416Z,72.00
2022-09-15T12:32:43.332Z,78.86
2022-09-15T12:37:46.040Z,87.08
2022-09-15T12:42:48.716Z,88.51
2022-09-15T12:47:51.416Z,90.32
2022-09-15T12:52:54.419Z,87.35
2022-09-15T12:57:57.176Z,81.42
2022-09-15T13:03:00.529Z,81.54
2022-09-15T13:08:03.241Z,81.41
2022-09-15T13:13:05.965Z,81.34
2022-09-15T13:18:08.722Z,79.44
2022-09-15T13:23:11.411Z,76.90
2022-09-15T13:33:22.367Z,76.28
2022-09-15T13:38:30.722Z,76.54
2022-09-15T13:43:38.719Z,75.96
2022-09-15T13:48:47.898Z,75.79
2022-09-15T13:53:50.590Z,73.27
2022-09-15T13:58:56.526Z,73.98
2022-09-15T14:04:02.619Z,75.75
2022-09-15T14:09:05.677Z,77.00
2022-09-15T14:14:08.409Z,73.37
2022-09-15T14:19:11.288Z,78.12
2022-09-15T14:24:14.021Z,100.00
2022-09-15T14:29:17.210Z,100.00
2022-09-15T14:34:20.656Z,100.00
2022-09-15T14:39:24.284Z,100.00
2022-09-15T14:49:51.290Z,100.00
2022-09-15T14:54:54.216Z,100.00
2022-09-15T14:59:56.949Z,100.00
2022-09-15T15:04:59.717Z,100.00
2022-09-15T15:10:03.762Z,100.00
2022-09-15T15:15:06.510Z,100.00
2022-09-15T15:20:09.582Z,100.00
2022-09-15T15:25:12.357Z,100.00
2022-09-15T15:30:15.113Z,100.00
2022-09-15T15:35:21.409Z,100.00
2022-09-15T15:40:24.175Z,100.00
2022-09-15T15:45:27.021Z,100.00
2022-09-15T15:50:32.287Z,100.00
2022-09-15T15:55:35.016Z,100.00
2022-09-15T16:00:38.307Z,100.00
2022-09-15T16:05:41.356Z,100.00
2022-09-15T16:10:44.150Z,100.00
2022-09-15T16:15:47.568Z,100.00
2022-09-15T16:20:51.839Z,100.00
2022-09-15T16:25:54.505Z,100.00
2022-09-15T16:30:57.679Z,100.00
2022-09-15T16:36:06.730Z,100.00
2022-09-15T16:41:09.546Z,100.00
2022-09-15T16:46:12.745Z,100.00
2022-09-15T16:51:31.560Z,100.00
2022-09-15T16:56:35.208Z,100.00
2022-09-15T17:01:38.151Z,100.00
2022-09-15T17:06:41.394Z,100.00
2022-09-15T17:11:44.400Z,100.00
2022-09-15T17:16:52.646Z,100.00
2022-09-15T17:21:56.389Z,100.00
2022-09-15T17:26:59.749Z,100.00
2022-09-15T17:32:04.667Z,100.00
2022-09-15T17:37:07.365Z,100.00
2022-09-15T17:42:10.172Z,100.00
2022-09-15T17:47:13.007Z,100.00
2022-09-15T17:52:16.142Z,100.00
2022-09-15T17:57:18.872Z,100.00
2022-09-15T18:02:22.033Z,100.00
2022-09-15T18:07:24.726Z,100.00
2022-09-15T18:12:27.614Z,100.00
2022-09-15T18:17:30.460Z,100.00
2022-09-15T18:22:33.688Z,100.00
2022-09-15T18:27:36.634Z,100.00
2022-09-15T18:32:40.188Z,100.00
2022-09-15T18:37:43.924Z,100.00
2022-09-15T18:42:46.872Z,100.00
2022-09-15T18:47:50.218Z,100.00
2022-09-15T18:52:53.005Z,100.00
2022-09-15T18:58:00.091Z,100.00
2022-09-15T19:03:03.769Z,100.00
2022-09-15T19:08:08.265Z,100.00
2022-09-15T19:13:12.140Z,100.00
2022-09-15T19:18:14.827Z,100.00
2022-09-15T19:23:17.560Z,100.00
2022-09-15T19:28:23.238Z,100.00
2022-09-15T19:33:26.046Z,100.00
2022-09-15T19:38:29.393Z,100.00
2022-09-15T19:43:33.031Z,100.00
2022-09-15T19:48:38.796Z,100.00
2022-09-15T19:53:44.829Z,100.00
2022-09-15T19:58:48.115Z,100.00
2022-09-15T20:03:51.474Z,100.00
2022-09-15T20:08:54.298Z,100.00
2022-09-15T20:13:57.143Z,100.00
2022-09-15T20:19:03.191Z,100.00
2022-09-15T20:24:05.945Z,100.00
2022-09-15T20:29:08.804Z,100.00
2022-09-15T20:34:15.344Z,100.00
2022-09-15T20:39:22.014Z,100.00
2022-09-15T20:44:24.929Z,100.00
2022-09-15T20:49:30.345Z,100.00
2022-09-15T20:54:33.121Z,100.00
2022-09-15T20:59:36.792Z,100.00
2022-09-15T21:04:39.527Z,100.00
2022-09-15T21:09:42.320Z,100.00
2022-09-15T21:14:45.062Z,100.00
2022-09-15T21:19:47.800Z,100.00
2022-09-15T21:24:54.893Z,100.00
2022-09-15T21:29:58.117Z,100.00
2022-09-15T21:35:00.871Z,100.00
2022-09-15T21:40:05.254Z,100.00
2022-09-15T21:45:08.729Z,100.00
2022-09-15T21:50:11.625Z,100.00
2022-09-15T21:55:14.450Z,100.00
2022-09-15T22:00:17.315Z,100.00
2022-09-15T22:05:20.681Z,100.00
2022-09-15T22:10:23.415Z,100.00
2022-09-15T22:15:26.218Z,100.00
2022-09-15T22:20:29.131Z,100.00
2022-09-15T22:25:31.896Z,100.00
2022-09-15T22:30:35.018Z,100.00
2022-09-15T22:35:38.234Z,100.00
2022-09-15T22:40:41.571Z,100.00
2022-09-15T22:45:45.085Z,100.00
2022-09-15T22:50:47.871Z,100.00
2022-09-15T22:55:50.786Z,100.00
2022-09-15T23:00:53.646Z,100.00
2022-09-15T23:06:03.535Z,100.00
2022-09-15T23:11:06.388Z,100.00
2022-09-15T23:16:09.322Z,100.00
2022-09-15T23:21:12.178Z,100.00
2022-09-15T23:26:14.910Z,100.00
2022-09-15T23:31:17.733Z,100.00
2022-09-15T23:36:21.315Z,100.00
2022-09-15T23:41:29.099Z,100.00
2022-09-15T23:46:32.283Z,100.00
2022-09-15T23:51:35.514Z,100.00
2022-09-15T23:56:38.463Z,100.00
